Time;durP1;ratioP1;P1;durP2;ratioP2;P2;SDS_P1;SDS_P2;PMS_P1;PMS_P2;Temp;Humidity;BMP_temperature;BMP_pressure;BME280_temperature;BME280_humidity;BME280_pressure;Samples;Min_cycle;Max_cycle;Signal;HPM_P1;HPM_P2
2022/01/04 00:00:50;;;;;;;0.10;0.10;;;;;;;;;;4216529;28;20097;-35
2022/01/04 00:02:51;;;;;;;0.10;0.10;;;;;;;;;;4216395;28;20059;-35
2022/01/04 00:04:52;;;;;;;0.30;0.20;;;;;;;;;;4216563;28;20364;-34
2022/01/04 00:06:55;;;;;;;0.10;0.10;;;;;;;;;;4215802;28;20052;-34
2022/01/04 00:08:59;;;;;;;0.20;0.15;;;;;;;;;;4216398;28;20093;-34
2022/01/04 00:13:23;;;;;;;0.43;0.10;;;;;;;;;;4216585;28;20101;-34
2022/01/04 00:13:30;;;;;;;0.25;0.25;;;;;;;;;;4198685;28;20056;-34
2022/01/04 00:15:31;;;;;;;0.13;0.10;;;;;;;;;;4216342;28;20054;-35
2022/01/04 00:17:32;;;;;;;0.32;0.15;;;;;;;;;;4216115;28;20537;-35
2022/01/04 00:19:33;;;;;;;0.13;0.13;;;;;;;;;;4216588;28;20124;-34
2022/01/04 00:21:34;;;;;;;0.10;0.10;;;;;;;;;;4216414;28;20124;-35
2022/01/04 00:23:35;;;;;;;0.22;0.13;;;;;;;;;;4197698;28;20056;-35
2022/01/04 00:25:36;;;;;;;1.77;0.20;;;;;;;;;;4216233;28;20056;-34
2022/01/04 00:27:37;;;;;;;0.50;0.20;;;;;;;;;;4216087;28;20055;-35
2022/01/04 00:29:39;;;;;;;0.20;0.10;;;;;;;;;;4216321;28;20249;-34
2022/01/04 00:31:40;;;;;;;0.10;0.10;;;;;;;;;;4215735;28;20047;-35
2022/01/04 00:33:41;;;;;;;0.52;0.30;;;;;;;;;;4216019;28;20070;-35
2022/01/04 00:35:42;;;;;;;0.10;0.10;;;;;;;;;;4215990;28;20076;-35
2022/01/04 00:37:43;;;;;;;0.10;0.10;;;;;;;;;;4197363;28;20052;-34
2022/01/04 00:39:44;;;;;;;0.20;0.20;;;;;;;;;;4215942;28;20101;-35
2022/01/04 00:41:45;;;;;;;0.10;0.10;;;;;;;;;;4198068;28;20098;-35
2022/01/04 00:43:46;;;;;;;0.20;0.13;;;;;;;;;;4197922;28;20423;-34
2022/01/04 00:45:47;;;;;;;0.28;0.10;;;;;;;;;;4216218;28;20136;-35
2022/01/04 00:49:55;;;;;;;0.20;0.20;;;;;;;;;;4215813;28;20545;-35
2022/01/04 00:51:56;;;;;;;0.40;0.20;;;;;;;;;;4215248;28;20083;-35
2022/01/04 00:53:57;;;;;;;0.88;0.20;;;;;;;;;;4215830;28;20111;-34
2022/01/04 00:55:58;;;;;;;0.75;0.20;;;;;;;;;;4215752;28;20413;-35
2022/01/04 00:57:59;;;;;;;0.10;0.10;;;;;;;;;;4215605;28;20095;-35
2022/01/04 01:00:00;;;;;;;0.20;0.20;;;;;;;;;;4215543;28;20128;-35
2022/01/04 01:02:01;;;;;;;0.30;0.10;;;;;;;;;;4215783;28;20051;-35
2022/01/04 01:04:02;;;;;;;0.22;0.10;;;;;;;;;;4215808;28;20383;-35
2022/01/04 01:06:04;;;;;;;0.25;0.10;;;;;;;;;;4215461;28;20101;-34
2022/01/04 01:08:05;;;;;;;0.50;0.28;;;;;;;;;;4214986;28;20101;-35
2022/01/04 01:12:26;;;;;;;0.10;0.10;;;;;;;;;;4215316;28;20048;-35
2022/01/04 01:14:27;;;;;;;0.65;0.20;;;;;;;;;;4215705;28;20093;-35
2022/01/04 01:16:28;;;;;;;0.10;0.10;;;;;;;;;;4215446;28;20063;-35
2022/01/04 01:18:29;;;;;;;0.20;0.20;;;;;;;;;;4215397;28;20083;-35
2022/01/04 01:20:30;;;;;;;0.80;0.20;;;;;;;;;;4215597;28;20113;-35
2022/01/04 01:22:31;;;;;;;0.30;0.20;;;;;;;;;;4196803;28;20053;-34
2022/01/04 01:24:32;;;;;;;0.28;0.10;;;;;;;;;;4213734;28;20451;-34
2022/01/04 01:26:33;;;;;;;0.20;0.20;;;;;;;;;;4198503;28;20100;-34
2022/01/04 01:28:35;;;;;;;0.32;0.20;;;;;;;;;;4198389;28;20091;-34
2022/01/04 01:30:39;;;;;;;0.20;0.10;;;;;;;;;;4198618;28;20094;-34
2022/01/04 01:32:40;;;;;;;0.30;0.20;;;;;;;;;;4198039;28;20441;-35
2022/01/04 01:34:42;;;;;;;0.57;0.30;;;;;;;;;;4198583;28;20103;-34
2022/01/04 01:36:43;;;;;;;0.25;0.20;;;;;;;;;;4197954;28;20106;-34
2022/01/04 01:38:45;;;;;;;0.38;0.10;;;;;;;;;;4198209;28;20048;-35
2022/01/04 01:40:46;;;;;;;0.35;0.20;;;;;;;;;;4180558;28;20361;-35
2022/01/04 01:42:47;;;;;;;0.52;0.20;;;;;;;;;;4198089;28;20067;-35
2022/01/04 01:44:49;;;;;;;0.20;0.10;;;;;;;;;;4198162;28;20491;-35
2022/01/04 01:46:50;;;;;;;0.20;0.15;;;;;;;;;;4198003;28;20059;-36
2022/01/04 01:48:51;;;;;;;0.20;0.10;;;;;;;;;;4198120;28;20080;-35
2022/01/04 01:50:52;;;;;;;0.20;0.13;;;;;;;;;;4197523;28;20094;-35
2022/01/04 01:52:54;;;;;;;0.10;0.10;;;;;;;;;;4197666;28;20045;-35
2022/01/04 01:54:55;;;;;;;0.30;0.20;;;;;;;;;;4180187;28;20566;-34
2022/01/04 01:56:56;;;;;;;0.15;0.10;;;;;;;;;;4197858;28;20326;-35
2022/01/04 01:58:57;;;;;;;0.30;0.20;;;;;;;;;;4197909;28;20393;-35
2022/01/04 02:00:58;;;;;;;0.35;0.10;;;;;;;;;;4198200;28;20064;-35
2022/01/04 02:03:02;;;;;;;0.17;0.10;;;;;;;;;;4180011;28;20119;-35
2022/01/04 02:05:03;;;;;;;0.35;0.15;;;;;;;;;;4180068;28;20470;-34
2022/01/04 02:07:05;;;;;;;0.85;0.10;;;;;;;;;;4197456;28;20121;-35
2022/01/04 02:09:06;;;;;;;0.22;0.10;;;;;;;;;;4197792;28;20052;-35
2022/01/04 02:11:07;;;;;;;0.22;0.10;;;;;;;;;;4197914;28;20055;-35
2022/01/04 02:13:08;;;;;;;0.20;0.15;;;;;;;;;;4197856;28;20090;-35
2022/01/04 02:15:11;;;;;;;0.10;0.10;;;;;;;;;;4197679;28;20094;-35
2022/01/04 02:17:12;;;;;;;0.30;0.20;;;;;;;;;;4197390;28;20057;-34
2022/01/04 02:19:13;;;;;;;0.63;0.10;;;;;;;;;;4197317;28;20091;-35
2022/01/04 02:21:14;;;;;;;0.20;0.10;;;;;;;;;;4197501;28;20053;-35
2022/01/04 02:23:15;;;;;;;0.10;0.10;;;;;;;;;;4197265;28;20136;-34
2022/01/04 02:25:16;;;;;;;0.63;0.13;;;;;;;;;;4196610;28;20044;-35
2022/01/04 02:27:17;;;;;;;0.10;0.10;;;;;;;;;;4214244;28;20055;-35
2022/01/04 02:29:19;;;;;;;0.40;0.10;;;;;;;;;;4214187;28;20048;-36
2022/01/04 02:31:20;;;;;;;0.20;0.10;;;;;;;;;;4214349;28;20048;-34
2022/01/04 02:33:21;;;;;;;0.10;0.10;;;;;;;;;;4214205;28;20116;-34
2022/01/04 02:35:23;;;;;;;0.30;0.20;;;;;;;;;;4214571;28;20083;-34
2022/01/04 02:37:27;;;;;;;0.10;0.10;;;;;;;;;;4195776;28;20044;-34
2022/01/04 02:39:28;;;;;;;0.30;0.20;;;;;;;;;;4214332;28;20063;-34
2022/01/04 02:41:29;;;;;;;0.82;0.30;;;;;;;;;;4214270;28;20058;-34
2022/01/04 02:43:30;;;;;;;0.40;0.20;;;;;;;;;;4213914;28;20487;-35
2022/01/04 02:45:31;;;;;;;0.10;0.10;;;;;;;;;;4196337;28;20102;-35
2022/01/04 02:47:32;;;;;;;0.57;0.10;;;;;;;;;;4213859;28;20044;-34
2022/01/04 02:49:33;;;;;;;0.20;0.20;;;;;;;;;;4196251;28;20074;-35
2022/01/04 02:51:34;;;;;;;0.20;0.10;;;;;;;;;;4213692;28;20180;-34
2022/01/04 02:53:35;;;;;;;0.40;0.20;;;;;;;;;;4213768;28;20101;-34
2022/01/04 02:55:36;;;;;;;0.08;0.08;;;;;;;;;;4214221;28;20096;-35
2022/01/04 02:57:37;;;;;;;0.35;0.17;;;;;;;;;;4213850;28;20051;-34
2022/01/04 02:59:38;;;;;;;0.20;0.10;;;;;;;;;;4213986;28;20054;-34
2022/01/04 03:01:39;;;;;;;0.10;0.10;;;;;;;;;;4213708;28;20058;-35
2022/01/04 03:03:40;;;;;;;0.20;0.10;;;;;;;;;;4213706;28;20047;-34
2022/01/04 03:05:41;;;;;;;0.10;0.10;;;;;;;;;;4213878;28;20052;-35
2022/01/04 03:07:42;;;;;;;0.55;0.10;;;;;;;;;;4213498;28;20090;-35
2022/01/04 03:09:43;;;;;;;0.30;0.13;;;;;;;;;;4195876;28;20453;-35
2022/01/04 03:11:44;;;;;;;0.10;0.10;;;;;;;;;;4213573;28;20189;-34
2022/01/04 03:13:45;;;;;;;0.43;0.20;;;;;;;;;;4213905;28;20101;-35
2022/01/04 03:15:47;;;;;;;0.20;0.20;;;;;;;;;;4195750;28;20046;-35
2022/01/04 03:17:48;;;;;;;0.52;0.30;;;;;;;;;;4195475;28;20090;-34
2022/01/04 03:19:48;;;;;;;0.25;0.10;;;;;;;;;;4213849;28;20070;-34
2022/01/04 03:21:50;;;;;;;0.10;0.10;;;;;;;;;;4213169;28;20068;-34
2022/01/04 03:23:51;;;;;;;0.17;0.13;;;;;;;;;;4213642;28;20047;-34
2022/01/04 03:25:52;;;;;;;0.10;0.10;;;;;;;;;;4213849;28;20111;-35
2022/01/04 03:27:53;;;;;;;0.22;0.13;;;;;;;;;;4213407;28;20434;-35
2022/01/04 03:29:54;;;;;;;0.10;0.10;;;;;;;;;;4195498;28;20057;-36
2022/01/04 03:31:57;;;;;;;0.30;0.20;;;;;;;;;;4213426;28;20059;-35
2022/01/04 03:33:58;;;;;;;0.22;0.10;;;;;;;;;;4213629;28;20056;-35
2022/01/04 03:36:00;;;;;;;0.10;0.10;;;;;;;;;;4213526;28;20475;-35
2022/01/04 03:38:01;;;;;;;0.43;0.20;;;;;;;;;;4212640;28;20101;-34
2022/01/04 03:40:03;;;;;;;0.50;0.20;;;;;;;;;;4213394;28;20321;-35
2022/01/04 03:42:04;;;;;;;0.47;0.10;;;;;;;;;;4213706;28;20102;-35
2022/01/04 03:44:06;;;;;;;0.10;0.10;;;;;;;;;;4195824;28;20052;-35
2022/01/04 03:46:07;;;;;;;0.20;0.10;;;;;;;;;;4213518;28;20044;-34
2022/01/04 03:48:08;;;;;;;0.30;0.20;;;;;;;;;;4195480;28;20094;-35
2022/01/04 03:50:09;;;;;;;0.30;0.10;;;;;;;;;;4213712;28;20117;-35
2022/01/04 03:52:10;;;;;;;1.38;0.10;;;;;;;;;;4208449;28;20052;-34
2022/01/04 03:54:11;;;;;;;0.70;0.32;;;;;;;;;;4196529;28;20457;-37
2022/01/04 03:56:12;;;;;;;0.25;0.10;;;;;;;;;;4179259;28;20124;-34
2022/01/04 03:58:13;;;;;;;0.10;0.10;;;;;;;;;;4178839;28;20114;-34
2022/01/04 04:00:14;;;;;;;0.40;0.10;;;;;;;;;;4196813;28;20098;-35
2022/01/04 04:02:15;;;;;;;0.17;0.10;;;;;;;;;;4196593;28;20099;-35
2022/01/04 04:04:17;;;;;;;0.10;0.10;;;;;;;;;;4196857;28;20064;-35
2022/01/04 04:06:18;;;;;;;0.20;0.10;;;;;;;;;;4196682;28;20056;-34
2022/01/04 04:08:19;;;;;;;0.25;0.20;;;;;;;;;;4196031;28;20104;-34
2022/01/04 04:10:20;;;;;;;0.10;0.10;;;;;;;;;;4196873;28;20056;-35
2022/01/04 04:12:23;;;;;;;0.17;0.10;;;;;;;;;;4196343;28;20097;-34
2022/01/04 04:14:24;;;;;;;0.57;0.13;;;;;;;;;;4198879;28;20103;-35
2022/01/04 04:16:25;;;;;;;0.10;0.10;;;;;;;;;;4198345;28;20054;-35
2022/01/04 04:18:26;;;;;;;0.47;0.20;;;;;;;;;;4199090;28;20098;-35
2022/01/04 04:20:27;;;;;;;0.10;0.10;;;;;;;;;;4199481;28;20421;-34
2022/01/04 04:22:28;;;;;;;0.22;0.08;;;;;;;;;;4198898;28;20053;-34
2022/01/04 04:24:29;;;;;;;0.20;0.10;;;;;;;;;;4199276;28;20060;-35
2022/01/04 04:26:30;;;;;;;0.38;0.13;;;;;;;;;;4199640;28;20097;-35
2022/01/04 04:28:31;;;;;;;0.52;0.13;;;;;;;;;;4199547;28;20429;-35
2022/01/04 04:30:33;;;;;;;0.10;0.10;;;;;;;;;;4198104;28;20500;-35
2022/01/04 04:32:34;;;;;;;0.25;0.20;;;;;;;;;;4199011;28;20377;-35
2022/01/04 04:34:35;;;;;;;0.22;0.22;;;;;;;;;;4199415;28;20109;-35
2022/01/04 04:36:36;;;;;;;0.20;0.20;;;;;;;;;;4199137;28;20399;-34
2022/01/04 04:38:37;;;;;;;0.38;0.20;;;;;;;;;;4198820;28;20044;-35
2022/01/04 04:40:38;;;;;;;0.10;0.10;;;;;;;;;;4199095;28;20120;-35
2022/01/04 04:42:39;;;;;;;0.28;0.20;;;;;;;;;;4199088;28;20052;-35
2022/01/04 04:44:40;;;;;;;0.10;0.10;;;;;;;;;;4199075;28;20399;-35
2022/01/04 04:46:41;;;;;;;0.20;0.10;;;;;;;;;;4198757;28;20135;-34
2022/01/04 04:48:41;;;;;;;0.85;0.20;;;;;;;;;;4198961;28;20103;-35
2022/01/04 04:50:42;;;;;;;0.50;0.20;;;;;;;;;;4199009;28;20117;-35
2022/01/04 04:52:44;;;;;;;0.10;0.10;;;;;;;;;;4198368;28;20056;-34
2022/01/04 04:54:45;;;;;;;0.20;0.10;;;;;;;;;;4198897;28;20449;-34
2022/01/04 04:56:46;;;;;;;0.38;0.10;;;;;;;;;;4198904;28;20052;-35
2022/01/04 04:58:47;;;;;;;0.73;0.10;;;;;;;;;;4198897;28;20219;-35
2022/01/04 05:00:48;;;;;;;0.10;0.10;;;;;;;;;;4199148;28;20090;-34
2022/01/04 05:02:49;;;;;;;0.20;0.13;;;;;;;;;;4199000;28;20066;-34
2022/01/04 05:04:50;;;;;;;0.85;0.17;;;;;;;;;;4199172;28;20476;-36
2022/01/04 05:06:52;;;;;;;0.08;0.08;;;;;;;;;;4198276;28;20052;-35
2022/01/04 05:08:53;;;;;;;0.10;0.10;;;;;;;;;;4198791;28;20378;-35
2022/01/04 05:10:54;;;;;;;0.35;0.17;;;;;;;;;;4198612;28;20059;-35
2022/01/04 05:12:55;;;;;;;0.20;0.10;;;;;;;;;;4198632;28;20053;-35
2022/01/04 05:14:56;;;;;;;0.28;0.20;;;;;;;;;;4198685;28;20542;-34
2022/01/04 05:16:57;;;;;;;0.10;0.10;;;;;;;;;;4198756;28;20130;-34
2022/01/04 05:18:58;;;;;;;0.52;0.20;;;;;;;;;;4198527;28;20101;-34
2022/01/04 05:20:59;;;;;;;0.30;0.03;;;;;;;;;;4198619;28;20160;-35
2022/01/04 05:23:00;;;;;;;0.20;0.20;;;;;;;;;;4196954;28;20107;-35
2022/01/04 05:25:01;;;;;;;0.10;0.10;;;;;;;;;;4197341;28;20099;-34
2022/01/04 05:27:02;;;;;;;0.35;0.13;;;;;;;;;;4180762;28;20067;-35
2022/01/04 05:29:03;;;;;;;0.43;0.10;;;;;;;;;;4198684;28;20114;-34
2022/01/04 05:31:04;;;;;;;0.30;0.10;;;;;;;;;;4197316;28;20057;-34
2022/01/04 05:33:05;;;;;;;0.38;0.20;;;;;;;;;;4198514;28;20044;-35
2022/01/04 05:35:07;;;;;;;0.30;0.13;;;;;;;;;;4198484;28;20386;-34
2022/01/04 05:37:08;;;;;;;0.20;0.10;;;;;;;;;;4198079;28;20052;-35
2022/01/04 05:39:09;;;;;;;0.10;0.10;;;;;;;;;;4164155;28;20052;-35
2022/01/04 05:41:10;;;;;;;0.20;0.20;;;;;;;;;;4198355;28;20056;-34
2022/01/04 05:43:11;;;;;;;0.40;0.20;;;;;;;;;;4198105;28;20056;-34
2022/01/04 05:45:12;;;;;;;0.30;0.20;;;;;;;;;;4180421;28;20507;-35
2022/01/04 05:47:13;;;;;;;0.30;0.13;;;;;;;;;;4198053;28;20041;-34
2022/01/04 05:49:14;;;;;;;0.22;0.17;;;;;;;;;;4198090;28;20048;-35
2022/01/04 05:51:15;;;;;;;0.47;0.10;;;;;;;;;;4198221;28;20101;-34
2022/01/04 05:53:16;;;;;;;0.10;0.10;;;;;;;;;;4197688;28;20056;-35
2022/01/04 05:55:17;;;;;;;0.28;0.13;;;;;;;;;;4198529;28;20052;-35
2022/01/04 05:57:18;;;;;;;0.10;0.03;;;;;;;;;;4197034;28;20086;-34
2022/01/04 05:59:19;;;;;;;0.63;0.20;;;;;;;;;;4197948;28;20052;-36
2022/01/04 06:01:20;;;;;;;0.15;0.00;;;;;;;;;;4180247;28;20052;-34
2022/01/04 06:03:21;;;;;;;0.10;0.10;;;;;;;;;;4198122;28;20052;-36
2022/01/04 06:05:22;;;;;;;0.20;0.10;;;;;;;;;;4196992;28;20400;-35
2022/01/04 06:07:23;;;;;;;0.32;0.13;;;;;;;;;;4197495;28;20107;-34
2022/01/04 06:09:28;;;;;;;0.10;0.10;;;;;;;;;;4198366;28;20044;-34
2022/01/04 06:11:55;;;;;;;0.30;0.10;;;;;;;;;;4197756;28;20055;-34
2022/01/04 06:16:16;;;;;;;0.32;0.17;;;;;;;;;;4196510;28;20048;-34
2022/01/04 06:18:17;;;;;;;0.52;0.15;;;;;;;;;;4197866;28;20045;-34
2022/01/04 06:20:22;;;;;;;0.55;0.15;;;;;;;;;;4196683;28;20453;-34
2022/01/04 06:22:27;;;;;;;0.20;0.10;;;;;;;;;;4196420;28;20056;-34
2022/01/04 06:24:28;;;;;;;0.00;0.00;;;;;;;;;;4185803;28;20056;-35
2022/01/04 06:26:29;;;;;;;0.30;0.10;;;;;;;;;;4163591;28;20054;-35
2022/01/04 06:28:31;;;;;;;0.43;0.10;;;;;;;;;;4180774;28;20454;-34
2022/01/04 06:30:32;;;;;;;0.20;0.10;;;;;;;;;;4163305;28;20057;-34
2022/01/04 06:32:33;;;;;;;0.25;0.20;;;;;;;;;;4180955;28;20094;-35
2022/01/04 06:34:34;;;;;;;0.10;0.10;;;;;;;;;;4180938;28;20053;-34
2022/01/04 06:36:35;;;;;;;0.10;0.10;;;;;;;;;;4180812;28;20053;-34
2022/01/04 06:38:36;;;;;;;0.68;0.20;;;;;;;;;;4180673;28;20431;-35
2022/01/04 06:40:37;;;;;;;0.15;0.10;;;;;;;;;;4180755;28;20044;-35
2022/01/04 06:42:38;;;;;;;0.30;0.20;;;;;;;;;;4181006;28;20144;-35
2022/01/04 06:44:41;;;;;;;0.10;0.10;;;;;;;;;;4180828;28;20048;-35
2022/01/04 06:46:45;;;;;;;0.10;0.10;;;;;;;;;;4180542;28;20049;-34
2022/01/04 06:48:46;;;;;;;0.30;0.20;;;;;;;;;;4180833;28;20053;-35
2022/01/04 06:50:47;;;;;;;0.30;0.10;;;;;;;;;;4180691;28;20397;-35
2022/01/04 06:52:48;;;;;;;0.20;0.13;;;;;;;;;;4180112;28;20061;-34
2022/01/04 06:54:49;;;;;;;0.10;0.00;;;;;;;;;;4180707;28;20175;-34
2022/01/04 06:56:50;;;;;;;0.10;0.10;;;;;;;;;;4180596;28;20401;-34
2022/01/04 06:58:52;;;;;;;0.10;0.10;;;;;;;;;;4180662;28;20440;-35
2022/01/04 07:00:53;;;;;;;0.15;0.10;;;;;;;;;;4179524;28;20044;-36
2022/01/04 07:02:54;;;;;;;1.13;0.10;;;;;;;;;;4180430;28;20052;-35
2022/01/04 07:04:55;;;;;;;0.40;0.10;;;;;;;;;;4179942;28;20474;-35
2022/01/04 07:06:56;;;;;;;0.10;0.10;;;;;;;;;;4179516;28;20099;-34
2022/01/04 07:08:57;;;;;;;0.85;0.10;;;;;;;;;;4180148;28;20123;-35
2022/01/04 07:10:58;;;;;;;0.17;0.10;;;;;;;;;;4180245;28;20465;-34
2022/01/04 07:12:59;;;;;;;0.30;0.10;;;;;;;;;;4179737;28;20102;-35
2022/01/04 07:15:00;;;;;;;0.10;0.10;;;;;;;;;;4180191;28;20052;-35
2022/01/04 07:17:00;;;;;;;0.15;0.10;;;;;;;;;;4179942;28;20144;-34
2022/01/04 07:19:02;;;;;;;0.60;0.20;;;;;;;;;;4180017;28;20044;-34
2022/01/04 07:21:03;;;;;;;0.17;0.13;;;;;;;;;;4180075;28;20053;-34
2022/01/04 07:23:04;;;;;;;0.22;0.17;;;;;;;;;;4179617;28;20053;-34
2022/01/04 07:25:06;;;;;;;0.17;0.10;;;;;;;;;;4195286;28;20057;-34
2022/01/04 07:27:07;;;;;;;0.20;0.10;;;;;;;;;;4162201;28;20057;-34
2022/01/04 07:29:08;;;;;;;0.25;0.08;;;;;;;;;;4196785;28;20126;-34
2022/01/04 07:31:09;;;;;;;0.38;0.10;;;;;;;;;;4196707;28;20060;-33
2022/01/04 07:33:10;;;;;;;0.10;0.10;;;;;;;;;;4196331;28;20060;-34
2022/01/04 07:35:11;;;;;;;0.03;0.00;;;;;;;;;;4196346;28;20049;-34
2022/01/04 07:37:13;;;;;;;0.10;0.10;;;;;;;;;;4195888;28;20045;-34
2022/01/04 07:39:14;;;;;;;0.10;0.10;;;;;;;;;;4196384;28;20044;-34
2022/01/04 07:41:15;;;;;;;0.35;0.10;;;;;;;;;;4162149;28;20049;-34
2022/01/04 07:43:16;;;;;;;0.28;0.10;;;;;;;;;;4178449;28;20860;-33
2022/01/04 07:45:17;;;;;;;0.80;0.10;;;;;;;;;;4196575;28;20060;-34
2022/01/04 07:47:18;;;;;;;0.20;0.10;;;;;;;;;;4196362;28;20114;-34
2022/01/04 07:49:19;;;;;;;0.10;0.10;;;;;;;;;;4198839;28;20476;-34
2022/01/04 07:51:23;;;;;;;0.22;0.10;;;;;;;;;;4199482;28;20468;-34
2022/01/04 07:53:24;;;;;;;0.20;0.15;;;;;;;;;;4199108;28;20055;-34
2022/01/04 07:55:25;;;;;;;0.10;0.10;;;;;;;;;;4199709;28;20052;-34
2022/01/04 07:57:26;;;;;;;0.40;0.20;;;;;;;;;;4199273;28;20090;-34
2022/01/04 07:59:32;;;;;;;0.32;0.10;;;;;;;;;;4199838;28;20052;-34
2022/01/04 08:01:33;;;;;;;0.25;0.10;;;;;;;;;;4199488;28;20094;-34
2022/01/04 08:03:34;;;;;;;1.88;0.10;;;;;;;;;;4212423;28;20105;-34
2022/01/04 08:05:35;;;;;;;0.20;0.20;;;;;;;;;;4213060;28;20060;-35
2022/01/04 08:07:37;;;;;;;0.47;0.20;;;;;;;;;;4214656;28;20056;-34
2022/01/04 08:09:38;;;;;;;0.60;0.10;;;;;;;;;;4207267;28;20079;-34
2022/01/04 08:11:39;;;;;;;0.25;0.10;;;;;;;;;;4212489;28;20051;-34
2022/01/04 08:13:40;;;;;;;0.32;0.10;;;;;;;;;;4214671;28;20485;-34
2022/01/04 08:15:41;;;;;;;0.40;0.20;;;;;;;;;;4211646;28;20085;-34
2022/01/04 08:17:42;;;;;;;0.32;0.20;;;;;;;;;;4193825;28;20052;-34
2022/01/04 08:19:43;;;;;;;0.38;0.20;;;;;;;;;;4195094;28;20519;-34
2022/01/04 08:21:44;;;;;;;0.50;0.20;;;;;;;;;;4194245;28;21713;-35
2022/01/04 08:23:45;;;;;;;0.10;0.10;;;;;;;;;;4217247;28;20052;-35
2022/01/04 08:25:46;;;;;;;0.98;0.10;;;;;;;;;;4210301;28;20097;-34
2022/01/04 08:27:47;;;;;;;0.35;0.10;;;;;;;;;;4210516;28;20388;-36
2022/01/04 08:29:48;;;;;;;0.10;0.10;;;;;;;;;;4195855;28;20339;-35
2022/01/04 08:31:49;;;;;;;1.02;0.20;;;;;;;;;;4208684;28;20079;-34
2022/01/04 08:33:51;;;;;;;0.10;0.10;;;;;;;;;;4217900;28;20052;-35
2022/01/04 08:35:52;;;;;;;0.30;0.20;;;;;;;;;;4217807;28;20040;-34
2022/01/04 08:37:53;;;;;;;0.10;0.10;;;;;;;;;;4195919;28;20090;-34
2022/01/04 08:39:54;;;;;;;0.95;0.30;;;;;;;;;;4221004;28;20040;-34
2022/01/04 08:41:55;;;;;;;0.63;0.13;;;;;;;;;;4211750;28;20078;-34
2022/01/04 08:43:56;;;;;;;0.85;0.20;;;;;;;;;;4210739;28;20392;-34
2022/01/04 08:45:57;;;;;;;0.43;0.20;;;;;;;;;;4202866;28;20056;-34
2022/01/04 08:47:59;;;;;;;0.52;0.13;;;;;;;;;;4212639;28;20048;-35
2022/01/04 08:50:00;;;;;;;0.20;0.10;;;;;;;;;;4208328;28;20056;-34
2022/01/04 08:52:05;;;;;;;0.55;0.15;;;;;;;;;;4213638;28;20052;-34
2022/01/04 08:54:06;;;;;;;0.93;0.20;;;;;;;;;;4212889;28;20052;-34
2022/01/04 08:56:07;;;;;;;0.32;0.20;;;;;;;;;;4214553;28;20052;-34
2022/01/04 08:58:08;;;;;;;0.47;0.20;;;;;;;;;;4210488;28;20500;-34
2022/01/04 09:00:10;;;;;;;0.45;0.30;;;;;;;;;;4187474;28;20094;-34
2022/01/04 09:02:11;;;;;;;1.13;0.30;;;;;;;;;;4213241;28;20043;-34
2022/01/04 09:04:12;;;;;;;0.93;0.45;;;;;;;;;;4197302;28;20105;-33
2022/01/04 09:06:14;;;;;;;0.20;0.20;;;;;;;;;;4211961;28;20051;-34
2022/01/04 09:08:15;;;;;;;0.52;0.22;;;;;;;;;;4206712;28;20392;-35
2022/01/04 09:10:16;;;;;;;0.55;0.20;;;;;;;;;;4200882;28;20124;-34
2022/01/04 09:12:19;;;;;;;0.10;0.10;;;;;;;;;;4216560;28;20047;-34
2022/01/04 09:14:39;;;;;;;0.88;0.20;;;;;;;;;;4215341;28;20520;-34
2022/01/04 09:19:00;;;;;;;;;;;;;;;;;;4206472;28;20385;-34
2022/01/04 09:21:01;;;;;;;0.40;0.20;;;;;;;;;;4210445;28;20113;-34
2022/01/04 09:23:02;;;;;;;0.60;0.20;;;;;;;;;;4195793;28;20076;-34
2022/01/04 09:25:04;;;;;;;0.52;0.28;;;;;;;;;;4207944;28;20108;-34
2022/01/04 09:27:06;;;;;;;0.77;0.20;;;;;;;;;;4195471;28;20056;-34
2022/01/04 09:29:07;;;;;;;0.85;0.25;;;;;;;;;;4209155;28;20052;-34
2022/01/04 09:31:08;;;;;;;0.70;0.30;;;;;;;;;;4209567;28;20407;-34
2022/01/04 09:33:09;;;;;;;0.20;0.20;;;;;;;;;;4214539;28;20093;-34
2022/01/04 09:35:12;;;;;;;1.10;0.10;;;;;;;;;;4213072;28;20113;-34
2022/01/04 09:37:13;;;;;;;2.30;0.20;;;;;;;;;;4213673;28;20044;-34
2022/01/04 09:39:16;;;;;;;0.80;0.20;;;;;;;;;;4204297;28;20044;-34
2022/01/04 09:41:17;;;;;;;0.77;0.35;;;;;;;;;;4208811;28;20048;-34
2022/01/04 09:43:20;;;;;;;0.35;0.10;;;;;;;;;;4209405;28;20155;-34
2022/01/04 09:45:21;;;;;;;0.70;0.20;;;;;;;;;;4193620;28;20078;-34
2022/01/04 09:47:22;;;;;;;0.32;0.28;;;;;;;;;;4217686;28;20130;-35
2022/01/04 09:49:23;;;;;;;0.30;0.20;;;;;;;;;;4212888;28;20047;-34
2022/01/04 09:51:25;;;;;;;0.43;0.20;;;;;;;;;;4175144;28;20112;-34
2022/01/04 09:53:27;;;;;;;1.05;0.60;;;;;;;;;;4208436;28;20048;-34
2022/01/04 09:55:28;;;;;;;0.95;0.30;;;;;;;;;;4214576;28;20048;-34
2022/01/04 09:57:29;;;;;;;0.77;0.30;;;;;;;;;;4211240;28;20436;-34
2022/01/04 09:59:29;;;;;;;0.77;0.35;;;;;;;;;;4211583;28;20578;-34
2022/01/04 10:01:36;;;;;;;0.75;0.40;;;;;;;;;;4221961;28;20507;-35
2022/01/04 10:03:37;;;;;;;0.65;0.20;;;;;;;;;;4208468;28;20059;-35
2022/01/04 10:05:38;;;;;;;0.32;0.20;;;;;;;;;;4206688;28;20515;-34
2022/01/04 10:07:39;;;;;;;0.30;0.13;;;;;;;;;;4211219;28;20089;-35
2022/01/04 10:09:45;;;;;;;0.30;0.20;;;;;;;;;;4210978;28;20549;-35
2022/01/04 10:11:50;;;;;;;0.20;0.10;;;;;;;;;;4210219;28;20357;-34
2022/01/04 10:13:51;;;;;;;0.52;0.28;;;;;;;;;;4207504;28;20063;-34
2022/01/04 10:15:52;;;;;;;1.13;0.20;;;;;;;;;;4192757;28;20433;-34
2022/01/04 10:17:56;;;;;;;0.43;0.20;;;;;;;;;;4205815;28;20048;-35
2022/01/04 10:19:59;;;;;;;0.50;0.28;;;;;;;;;;4211954;28;20052;-34
2022/01/04 10:22:12;;;;;;;0.35;0.20;;;;;;;;;;4211836;28;20253;-34
2022/01/04 10:24:17;;;;;;;0.93;0.30;;;;;;;;;;4202308;28;20048;-34
2022/01/04 10:26:26;;;;;;;0.55;0.20;;;;;;;;;;4196742;28;20122;-36
2022/01/04 10:28:31;;;;;;;0.50;0.30;;;;;;;;;;4198383;28;20048;-34
2022/01/04 10:30:38;;;;;;;0.73;0.20;;;;;;;;;;4195363;28;20055;-34
2022/01/04 10:33:02;;;;;;;0.90;0.40;;;;;;;;;;4193974;28;20040;-34
2022/01/04 10:35:04;;;;;;;0.38;0.20;;;;;;;;;;4173043;28;20045;-37
2022/01/04 10:37:05;;;;;;;0.88;0.35;;;;;;;;;;4180502;28;20051;-37
2022/01/04 10:39:09;;;;;;;0.93;0.30;;;;;;;;;;4198766;28;20050;-36
2022/01/04 10:41:15;;;;;;;1.48;0.22;;;;;;;;;;4179724;28;20072;-35
2022/01/04 10:43:18;;;;;;;0.40;0.20;;;;;;;;;;4202101;28;20052;-36
2022/01/04 10:45:22;;;;;;;0.20;0.15;;;;;;;;;;4197206;28;20826;-35
2022/01/04 10:47:27;;;;;;;0.77;0.22;;;;;;;;;;4197736;28;20052;-35
2022/01/04 10:49:32;;;;;;;0.73;0.32;;;;;;;;;;4173621;28;20060;-35
2022/01/04 10:51:33;;;;;;;1.73;0.30;;;;;;;;;;4194706;28;20098;-35
2022/01/04 10:53:42;;;;;;;1.23;0.30;;;;;;;;;;4200655;28;20069;-35
2022/01/04 10:55:44;;;;;;;2.03;0.47;;;;;;;;;;4189221;28;20052;-36
2022/01/04 10:57:44;;;;;;;0.80;0.40;;;;;;;;;;4195149;28;21117;-36
2022/01/04 10:59:45;;;;;;;1.48;0.50;;;;;;;;;;4193910;28;20087;-35
2022/01/04 11:01:50;;;;;;;1.17;0.28;;;;;;;;;;4198354;28;20071;-35
2022/01/04 11:03:53;;;;;;;2.22;0.80;;;;;;;;;;4192161;28;20044;-35
2022/01/04 11:05:55;;;;;;;1.00;0.52;;;;;;;;;;4195908;28;20048;-35
2022/01/04 11:07:55;;;;;;;0.88;0.30;;;;;;;;;;4194038;28;20048;-35
2022/01/04 11:09:57;;;;;;;0.93;0.40;;;;;;;;;;4199265;28;20097;-35
2022/01/04 11:11:58;;;;;;;1.15;0.43;;;;;;;;;;4193873;28;20097;-36
2022/01/04 11:13:59;;;;;;;0.85;0.50;;;;;;;;;;4203029;28;20036;-44
2022/01/04 11:16:01;;;;;;;1.58;0.52;;;;;;;;;;4191431;28;20052;-44
2022/01/04 11:18:02;;;;;;;2.05;0.40;;;;;;;;;;4193576;28;20040;-43
2022/01/04 11:20:04;;;;;;;1.73;0.60;;;;;;;;;;4195735;28;20389;-43
2022/01/04 11:22:08;;;;;;;3.15;0.52;;;;;;;;;;4193975;28;20045;-44
2022/01/04 11:24:16;;;;;;;3.30;0.82;;;;;;;;;;4203789;28;20447;-44
2022/01/04 11:26:18;;;;;;;3.08;0.50;;;;;;;;;;4214222;28;20062;-44
2022/01/04 11:28:19;;;;;;;1.70;0.50;;;;;;;;;;4217911;28;20052;-44
2022/01/04 11:30:25;;;;;;;4.38;0.63;;;;;;;;;;4220059;28;20048;-42
2022/01/04 11:32:27;;;;;;;1.88;0.70;;;;;;;;;;4210773;28;20048;-42
2022/01/04 11:34:46;;;;;;;3.88;0.70;;;;;;;;;;4216235;28;20127;-42
2022/01/04 11:36:49;;;;;;;0.98;0.50;;;;;;;;;;4206980;28;20052;-43
2022/01/04 11:38:50;;;;;;;2.85;0.70;;;;;;;;;;4215075;28;20457;-43
2022/01/04 11:40:51;;;;;;;1.15;0.60;;;;;;;;;;4197845;28;20090;-42
2022/01/04 11:42:52;;;;;;;2.17;0.70;;;;;;;;;;4213512;28;20479;-42
2022/01/04 11:44:53;;;;;;;0.93;0.60;;;;;;;;;;4210998;28;20122;-43
2022/01/04 11:47:06;;;;;;;0.90;0.52;;;;;;;;;;4197109;28;20098;-42
2022/01/04 11:49:08;;;;;;;1.88;0.65;;;;;;;;;;4209523;28;20113;-43
2022/01/04 11:51:32;;;;;;;1.55;0.55;;;;;;;;;;4213085;28;20100;-43
2022/01/04 11:53:33;;;;;;;2.53;0.60;;;;;;;;;;4211954;28;20307;-43
2022/01/04 11:55:37;;;;;;;1.90;0.40;;;;;;;;;;4209412;28;20060;-43
2022/01/04 11:57:39;;;;;;;2.15;0.40;;;;;;;;;;4215332;28;20052;-43
2022/01/04 11:59:45;;;;;;;2.30;0.60;;;;;;;;;;4208744;28;20044;-42
2022/01/04 12:01:46;;;;;;;1.38;0.40;;;;;;;;;;4216029;28;20503;-43
2022/01/04 12:03:48;;;;;;;1.50;0.68;;;;;;;;;;4211690;28;20052;-42
2022/01/04 12:05:55;;;;;;;1.00;0.60;;;;;;;;;;4217124;28;20036;-42
2022/01/04 12:07:59;;;;;;;1.20;0.50;;;;;;;;;;4215656;28;20048;-43
2022/01/04 12:10:19;;;;;;;1.33;0.50;;;;;;;;;;4205557;28;20090;-43
2022/01/04 12:12:38;;;;;;;0.95;0.60;;;;;;;;;;4211512;28;20048;-43
2022/01/04 12:14:39;;;;;;;1.20;0.57;;;;;;;;;;4213168;28;20097;-42
2022/01/04 12:16:42;;;;;;;1.65;0.52;;;;;;;;;;4211774;28;20059;-42
2022/01/04 12:18:43;;;;;;;1.00;0.50;;;;;;;;;;4223454;28;20052;-42
2022/01/04 12:20:44;;;;;;;1.73;0.40;;;;;;;;;;4209706;28;20545;-44